sensor_id;sensor_type;location;lat;lon;timestamp;temperature;humidity
38359;DHT22;42072;48.044;14.416;2023-06-01T00:00:53;15.00;99.90
38359;DHT22;42072;48.044;14.416;2023-06-01T00:03:23;15.10;99.90
38359;DHT22;42072;48.044;14.416;2023-06-01T00:05:50;15.10;99.90
38359;DHT22;42072;48.044;14.416;2023-06-01T00:08:18;15.10;99.90
38359;DHT22;42072;48.044;14.416;2023-06-01T00:10:45;15.00;99.90
38359;DHT22;42072;48.044;14.416;2023-06-01T00:13:12;15.00;99.90
38359;DHT22;42072;48.044;14.416;2023-06-01T00:15:39;15.00;99.90
38359;DHT22;42072;48.044;14.416;2023-06-01T00:18:07;14.90;99.90
38359;DHT22;42072;48.044;14.416;2023-06-01T00:20:35;14.90;99.90
38359;DHT22;42072;48.044;14.416;2023-06-01T00:23:02;14.80;99.90
38359;DHT22;42072;48.044;14.416;2023-06-01T00:25:30;14.80;99.90
38359;DHT22;42072;48.044;14.416;2023-06-01T00:27:57;14.70;99.90
38359;DHT22;42072;48.044;14.416;2023-06-01T00:30:24;14.70;99.90
38359;DHT22;42072;48.044;14.416;2023-06-01T00:32:51;14.70;99.90
38359;DHT22;42072;48.044;14.416;2023-06-01T00:35:19;14.60;99.90
38359;DHT22;42072;48.044;14.416;2023-06-01T00:37:46;14.50;99.90
38359;DHT22;42072;48.044;14.416;2023-06-01T00:40:13;14.50;99.90
38359;DHT22;42072;48.044;14.416;2023-06-01T00:42:41;14.40;99.90
38359;DHT22;42072;48.044;14.416;2023-06-01T00:45:08;14.30;99.90
38359;DHT22;42072;48.044;14.416;2023-06-01T00:47:40;14.30;99.90
38359;DHT22;42072;48.044;14.416;2023-06-01T00:50:11;14.20;99.90
38359;DHT22;42072;48.044;14.416;2023-06-01T00:52:40;14.20;99.90
38359;DHT22;42072;48.044;14.416;2023-06-01T00:55:10;14.10;99.90
38359;DHT22;42072;48.044;14.416;2023-06-01T00:57:39;14.00;1.00
38359;DHT22;42072;48.044;14.416;2023-06-01T01:00:09;13.90;1.00
38359;DHT22;42072;48.044;14.416;2023-06-01T01:02:41;13.90;1.00
38359;DHT22;42072;48.044;14.416;2023-06-01T01:05:11;13.80;1.00
38359;DHT22;42072;48.044;14.416;2023-06-01T01:07:51;13.70;1.00
38359;DHT22;42072;48.044;14.416;2023-06-01T01:10:37;13.50;1.00
38359;DHT22;42072;48.044;14.416;2023-06-01T01:18:19;13.30;1.00
38359;DHT22;42072;48.044;14.416;2023-06-01T01:21:00;13.30;1.00
38359;DHT22;42072;48.044;14.416;2023-06-01T01:23:38;13.20;1.00
38359;DHT22;42072;48.044;14.416;2023-06-01T01:29:05;13.00;5.40
38359;DHT22;42072;48.044;14.416;2023-06-01T01:31:33;13.00;6.60
38359;DHT22;42072;48.044;14.416;2023-06-01T01:34:03;13.00;19.20
38359;DHT22;42072;48.044;14.416;2023-06-01T01:36:30;13.00;27.20
38359;DHT22;42072;48.044;14.416;2023-06-01T01:38:58;12.90;30.10
38359;DHT22;42072;48.044;14.416;2023-06-01T01:41:25;12.90;46.10
38359;DHT22;42072;48.044;14.416;2023-06-01T01:43:53;12.90;39.20
38359;DHT22;42072;48.044;14.416;2023-06-01T01:46:32;12.80;52.70
38359;DHT22;42072;48.044;14.416;2023-06-01T01:49:30;12.80;67.70
38359;DHT22;42072;48.044;14.416;2023-06-01T01:52:21;12.70;88.20
38359;DHT22;42072;48.044;14.416;2023-06-01T01:54:50;12.60;98.00
38359;DHT22;42072;48.044;14.416;2023-06-01T01:57:18;12.50;99.90
38359;DHT22;42072;48.044;14.416;2023-06-01T01:59:46;12.40;99.90
38359;DHT22;42072;48.044;14.416;2023-06-01T02:02:14;12.40;99.90
38359;DHT22;42072;48.044;14.416;2023-06-01T02:04:43;12.40;99.90
38359;DHT22;42072;48.044;14.416;2023-06-01T02:07:11;12.30;99.90
38359;DHT22;42072;48.044;14.416;2023-06-01T02:09:39;12.30;99.90
38359;DHT22;42072;48.044;14.416;2023-06-01T02:12:07;12.30;99.90
38359;DHT22;42072;48.044;14.416;2023-06-01T02:14:34;12.20;99.90
38359;DHT22;42072;48.044;14.416;2023-06-01T02:17:02;12.20;99.90
38359;DHT22;42072;48.044;14.416;2023-06-01T02:19:30;12.20;99.90
38359;DHT22;42072;48.044;14.416;2023-06-01T02:21:57;12.20;99.90
38359;DHT22;42072;48.044;14.416;2023-06-01T02:24:24;12.10;99.90
38359;DHT22;42072;48.044;14.416;2023-06-01T02:26:52;12.10;99.90
38359;DHT22;42072;48.044;14.416;2023-06-01T02:29:21;11.90;99.90
38359;DHT22;42072;48.044;14.416;2023-06-01T02:31:51;11.90;99.90
38359;DHT22;42072;48.044;14.416;2023-06-01T02:34:20;11.80;99.90
38359;DHT22;42072;48.044;14.416;2023-06-01T02:36:47;11.80;99.90
38359;DHT22;42072;48.044;14.416;2023-06-01T02:39:15;11.70;99.90
38359;DHT22;42072;48.044;14.416;2023-06-01T02:41:44;11.70;99.90
38359;DHT22;42072;48.044;14.416;2023-06-01T02:44:12;11.60;99.90
38359;DHT22;42072;48.044;14.416;2023-06-01T02:46:39;11.60;99.90
38359;DHT22;42072;48.044;14.416;2023-06-01T02:49:06;11.50;99.90
38359;DHT22;42072;48.044;14.416;2023-06-01T02:51:33;11.50;99.90
38359;DHT22;42072;48.044;14.416;2023-06-01T02:54:00;11.50;99.90
38359;DHT22;42072;48.044;14.416;2023-06-01T02:56:28;11.50;99.90
38359;DHT22;42072;48.044;14.416;2023-06-01T02:58:55;11.40;99.90
38359;DHT22;42072;48.044;14.416;2023-06-01T03:01:22;11.40;99.90
38359;DHT22;42072;48.044;14.416;2023-06-01T03:03:50;11.30;99.90
38359;DHT22;42072;48.044;14.416;2023-06-01T03:06:19;11.30;99.90
38359;DHT22;42072;48.044;14.416;2023-06-01T03:08:48;11.30;99.90
38359;DHT22;42072;48.044;14.416;2023-06-01T03:11:15;11.30;99.90
38359;DHT22;42072;48.044;14.416;2023-06-01T03:13:43;11.30;99.90
38359;DHT22;42072;48.044;14.416;2023-06-01T03:16:10;11.30;99.90
38359;DHT22;42072;48.044;14.416;2023-06-01T03:18:37;11.30;99.90
38359;DHT22;42072;48.044;14.416;2023-06-01T03:21:05;11.30;99.90
38359;DHT22;42072;48.044;14.416;2023-06-01T03:23:33;11.30;99.90
38359;DHT22;42072;48.044;14.416;2023-06-01T03:26:00;11.30;99.90
38359;DHT22;42072;48.044;14.416;2023-06-01T03:28:31;11.30;99.90
38359;DHT22;42072;48.044;14.416;2023-06-01T03:30:58;11.30;99.90
38359;DHT22;42072;48.044;14.416;2023-06-01T03:33:26;11.40;99.90
38359;DHT22;42072;48.044;14.416;2023-06-01T03:35:53;11.40;99.90
38359;DHT22;42072;48.044;14.416;2023-06-01T03:38:20;11.50;99.90
38359;DHT22;42072;48.044;14.416;2023-06-01T03:40:48;11.60;99.90
38359;DHT22;42072;48.044;14.416;2023-06-01T03:43:15;11.60;99.90
38359;DHT22;42072;48.044;14.416;2023-06-01T03:45:42;11.60;99.90
38359;DHT22;42072;48.044;14.416;2023-06-01T03:48:09;11.70;99.90
38359;DHT22;42072;48.044;14.416;2023-06-01T03:50:37;11.70;99.90
38359;DHT22;42072;48.044;14.416;2023-06-01T03:53:04;11.80;99.90
38359;DHT22;42072;48.044;14.416;2023-06-01T03:55:32;11.90;99.90
38359;DHT22;42072;48.044;14.416;2023-06-01T03:58:02;12.00;99.90
38359;DHT22;42072;48.044;14.416;2023-06-01T04:00:29;12.10;99.90
38359;DHT22;42072;48.044;14.416;2023-06-01T04:02:58;12.20;99.90
38359;DHT22;42072;48.044;14.416;2023-06-01T04:05:27;12.30;99.90
38359;DHT22;42072;48.044;14.416;2023-06-01T04:07:55;12.40;99.90
38359;DHT22;42072;48.044;14.416;2023-06-01T04:10:22;12.50;99.90
38359;DHT22;42072;48.044;14.416;2023-06-01T04:12:50;12.60;99.90
38359;DHT22;42072;48.044;14.416;2023-06-01T04:15:19;12.80;99.90
38359;DHT22;42072;48.044;14.416;2023-06-01T04:17:47;12.90;99.90
38359;DHT22;42072;48.044;14.416;2023-06-01T04:20:16;13.00;93.30
38359;DHT22;42072;48.044;14.416;2023-06-01T04:22:44;13.20;67.40
38359;DHT22;42072;48.044;14.416;2023-06-01T04:25:14;13.30;38.10
38359;DHT22;42072;48.044;14.416;2023-06-01T04:27:47;13.80;40.20
38359;DHT22;42072;48.044;14.416;2023-06-01T04:30:16;16.20;1.00
38359;DHT22;42072;48.044;14.416;2023-06-01T04:32:44;18.70;99.90
38359;DHT22;42072;48.044;14.416;2023-06-01T04:35:13;20.70;99.90
38359;DHT22;42072;48.044;14.416;2023-06-01T04:37:41;22.30;99.90
38359;DHT22;42072;48.044;14.416;2023-06-01T04:40:11;23.40;99.90
38359;DHT22;42072;48.044;14.416;2023-06-01T04:42:43;24.40;99.90
38359;DHT22;42072;48.044;14.416;2023-06-01T04:45:25;24.90;99.90
38359;DHT22;42072;48.044;14.416;2023-06-01T04:47:52;25.30;99.90
38359;DHT22;42072;48.044;14.416;2023-06-01T04:50:24;25.00;99.90
38359;DHT22;42072;48.044;14.416;2023-06-01T04:52:52;23.50;99.90
38359;DHT22;42072;48.044;14.416;2023-06-01T04:55:19;21.90;99.90
38359;DHT22;42072;48.044;14.416;2023-06-01T04:57:46;21.10;99.90
38359;DHT22;42072;48.044;14.416;2023-06-01T05:00:14;20.10;99.90
38359;DHT22;42072;48.044;14.416;2023-06-01T05:02:46;19.50;99.90
38359;DHT22;42072;48.044;14.416;2023-06-01T05:05:15;19.50;99.90
38359;DHT22;42072;48.044;14.416;2023-06-01T05:07:43;19.60;99.90
38359;DHT22;42072;48.044;14.416;2023-06-01T05:10:12;20.10;99.90
38359;DHT22;42072;48.044;14.416;2023-06-01T05:12:39;20.90;99.90
38359;DHT22;42072;48.044;14.416;2023-06-01T05:15:08;21.70;99.90
38359;DHT22;42072;48.044;14.416;2023-06-01T05:17:35;22.90;99.90
38359;DHT22;42072;48.044;14.416;2023-06-01T05:20:07;23.60;99.90
38359;DHT22;42072;48.044;14.416;2023-06-01T05:22:37;23.60;99.90
38359;DHT22;42072;48.044;14.416;2023-06-01T05:25:05;23.30;99.90
38359;DHT22;42072;48.044;14.416;2023-06-01T05:27:34;23.00;99.90
38359;DHT22;42072;48.044;14.416;2023-06-01T05:30:01;23.00;99.90
38359;DHT22;42072;48.044;14.416;2023-06-01T05:32:29;23.60;99.90
38359;DHT22;42072;48.044;14.416;2023-06-01T05:34:57;24.20;99.90
38359;DHT22;42072;48.044;14.416;2023-06-01T05:37:24;25.40;99.90
38359;DHT22;42072;48.044;14.416;2023-06-01T05:39:51;26.00;99.90
38359;DHT22;42072;48.044;14.416;2023-06-01T05:42:18;26.80;99.90
38359;DHT22;42072;48.044;14.416;2023-06-01T05:44:46;27.40;99.90
38359;DHT22;42072;48.044;14.416;2023-06-01T05:47:13;28.10;99.90
38359;DHT22;42072;48.044;14.416;2023-06-01T05:49:40;28.20;99.90
38359;DHT22;42072;48.044;14.416;2023-06-01T05:52:08;28.50;99.90
38359;DHT22;42072;48.044;14.416;2023-06-01T05:54:36;29.00;99.90
38359;DHT22;42072;48.044;14.416;2023-06-01T05:57:04;29.10;99.90
38359;DHT22;42072;48.044;14.416;2023-06-01T05:59:33;28.80;99.90
38359;DHT22;42072;48.044;14.416;2023-06-01T06:02:00;28.40;99.90
38359;DHT22;42072;48.044;14.416;2023-06-01T06:04:27;28.50;99.90
38359;DHT22;42072;48.044;14.416;2023-06-01T06:06:55;28.80;99.90
38359;DHT22;42072;48.044;14.416;2023-06-01T06:09:22;29.10;99.90
38359;DHT22;42072;48.044;14.416;2023-06-01T06:11:50;29.10;99.90
38359;DHT22;42072;48.044;14.416;2023-06-01T06:14:17;28.90;99.90
38359;DHT22;42072;48.044;14.416;2023-06-01T06:16:44;28.50;99.90
38359;DHT22;42072;48.044;14.416;2023-06-01T06:19:12;28.20;99.90
38359;DHT22;42072;48.044;14.416;2023-06-01T06:21:39;28.20;99.90
38359;DHT22;42072;48.044;14.416;2023-06-01T06:24:06;28.00;99.90
38359;DHT22;42072;48.044;14.416;2023-06-01T06:26:34;26.60;99.90
38359;DHT22;42072;48.044;14.416;2023-06-01T06:29:01;24.80;99.90
38359;DHT22;42072;48.044;14.416;2023-06-01T06:31:29;23.00;99.90
38359;DHT22;42072;48.044;14.416;2023-06-01T06:33:56;21.60;99.90
38359;DHT22;42072;48.044;14.416;2023-06-01T06:36:23;21.10;99.90
38359;DHT22;42072;48.044;14.416;2023-06-01T06:38:51;20.70;99.90
38359;DHT22;42072;48.044;14.416;2023-06-01T06:41:18;20.60;99.90
38359;DHT22;42072;48.044;14.416;2023-06-01T06:43:46;20.50;99.90
38359;DHT22;42072;48.044;14.416;2023-06-01T06:46:13;20.50;99.90
38359;DHT22;42072;48.044;14.416;2023-06-01T06:48:40;20.60;99.90
38359;DHT22;42072;48.044;14.416;2023-06-01T06:51:07;20.70;99.90
38359;DHT22;42072;48.044;14.416;2023-06-01T06:53:35;20.70;99.90
38359;DHT22;42072;48.044;14.416;2023-06-01T06:56:02;20.80;99.90
38359;DHT22;42072;48.044;14.416;2023-06-01T06:58:30;20.90;99.90
38359;DHT22;42072;48.044;14.416;2023-06-01T07:00:57;20.60;99.90
38359;DHT22;42072;48.044;14.416;2023-06-01T07:03:25;20.70;99.90
38359;DHT22;42072;48.044;14.416;2023-06-01T07:05:53;21.00;99.90
38359;DHT22;42072;48.044;14.416;2023-06-01T07:08:20;21.20;99.90
38359;DHT22;42072;48.044;14.416;2023-06-01T07:10:48;21.20;99.90
38359;DHT22;42072;48.044;14.416;2023-06-01T07:13:17;21.30;99.90
38359;DHT22;42072;48.044;14.416;2023-06-01T07:15:44;21.50;99.90
38359;DHT22;42072;48.044;14.416;2023-06-01T07:18:11;21.70;99.90
38359;DHT22;42072;48.044;14.416;2023-06-01T07:20:39;21.70;99.90
38359;DHT22;42072;48.044;14.416;2023-06-01T07:23:07;21.80;99.90
38359;DHT22;42072;48.044;14.416;2023-06-01T07:25:34;21.60;99.90
38359;DHT22;42072;48.044;14.416;2023-06-01T07:28:02;21.80;99.90
38359;DHT22;42072;48.044;14.416;2023-06-01T07:30:34;21.90;99.90
38359;DHT22;42072;48.044;14.416;2023-06-01T07:33:01;22.00;99.90
38359;DHT22;42072;48.044;14.416;2023-06-01T07:35:32;22.10;99.90
38359;DHT22;42072;48.044;14.416;2023-06-01T07:38:00;21.90;99.90
38359;DHT22;42072;48.044;14.416;2023-06-01T07:40:30;22.10;99.90
38359;DHT22;42072;48.044;14.416;2023-06-01T07:42:57;22.10;99.90
38359;DHT22;42072;48.044;14.416;2023-06-01T07:45:25;22.20;99.90
38359;DHT22;42072;48.044;14.416;2023-06-01T07:47:52;22.20;99.90
38359;DHT22;42072;48.044;14.416;2023-06-01T07:50:20;22.60;99.90
38359;DHT22;42072;48.044;14.416;2023-06-01T07:52:48;22.90;99.90
38359;DHT22;42072;48.044;14.416;2023-06-01T07:55:17;23.00;99.90
38359;DHT22;42072;48.044;14.416;2023-06-01T07:57:44;22.80;99.90
38359;DHT22;42072;48.044;14.416;2023-06-01T08:00:12;23.00;99.90
38359;DHT22;42072;48.044;14.416;2023-06-01T08:02:39;23.20;99.90
38359;DHT22;42072;48.044;14.416;2023-06-01T08:05:08;23.30;99.90
38359;DHT22;42072;48.044;14.416;2023-06-01T08:07:37;23.40;99.90
38359;DHT22;42072;48.044;14.416;2023-06-01T08:10:05;23.20;99.90
38359;DHT22;42072;48.044;14.416;2023-06-01T08:12:33;23.10;99.90
38359;DHT22;42072;48.044;14.416;2023-06-01T08:15:00;23.30;99.90
38359;DHT22;42072;48.044;14.416;2023-06-01T08:17:27;23.40;99.90
38359;DHT22;42072;48.044;14.416;2023-06-01T08:19:55;23.70;99.90
38359;DHT22;42072;48.044;14.416;2023-06-01T08:22:24;23.70;99.90
38359;DHT22;42072;48.044;14.416;2023-06-01T08:24:51;23.90;99.90
38359;DHT22;42072;48.044;14.416;2023-06-01T08:27:21;23.80;99.90
38359;DHT22;42072;48.044;14.416;2023-06-01T08:29:52;23.40;99.90
38359;DHT22;42072;48.044;14.416;2023-06-01T08:32:21;23.50;99.90
38359;DHT22;42072;48.044;14.416;2023-06-01T08:34:49;23.70;99.90
38359;DHT22;42072;48.044;14.416;2023-06-01T08:37:16;23.50;99.90
38359;DHT22;42072;48.044;14.416;2023-06-01T08:39:43;23.70;99.90
38359;DHT22;42072;48.044;14.416;2023-06-01T08:44:53;23.80;99.90
38359;DHT22;42072;48.044;14.416;2023-06-01T08:47:24;24.00;99.90
38359;DHT22;42072;48.044;14.416;2023-06-01T08:49:53;24.10;99.90
38359;DHT22;42072;48.044;14.416;2023-06-01T08:52:22;24.10;99.90
38359;DHT22;42072;48.044;14.416;2023-06-01T08:54:52;23.90;99.90
38359;DHT22;42072;48.044;14.416;2023-06-01T08:57:20;23.80;99.90
38359;DHT22;42072;48.044;14.416;2023-06-01T08:59:48;23.70;99.90
38359;DHT22;42072;48.044;14.416;2023-06-01T09:02:15;23.90;99.90
38359;DHT22;42072;48.044;14.416;2023-06-01T09:04:42;24.20;99.90
38359;DHT22;42072;48.044;14.416;2023-06-01T09:07:15;24.60;99.90
38359;DHT22;42072;48.044;14.416;2023-06-01T09:09:43;24.70;99.90
38359;DHT22;42072;48.044;14.416;2023-06-01T09:12:25;24.80;99.90
38359;DHT22;42072;48.044;14.416;2023-06-01T09:15:15;24.70;99.90
38359;DHT22;42072;48.044;14.416;2023-06-01T09:17:46;24.90;99.90
38359;DHT22;42072;48.044;14.416;2023-06-01T09:20:24;24.90;99.90
38359;DHT22;42072;48.044;14.416;2023-06-01T09:22:52;24.90;99.90
38359;DHT22;42072;48.044;14.416;2023-06-01T09:25:25;25.20;99.90
38359;DHT22;42072;48.044;14.416;2023-06-01T09:27:58;24.90;99.90
38359;DHT22;42072;48.044;14.416;2023-06-01T09:30:37;24.70;99.90
38359;DHT22;42072;48.044;14.416;2023-06-01T09:33:11;24.90;99.90
38359;DHT22;42072;48.044;14.416;2023-06-01T09:35:43;25.00;99.90
38359;DHT22;42072;48.044;14.416;2023-06-01T09:38:11;25.20;99.90
38359;DHT22;42072;48.044;14.416;2023-06-01T09:40:39;25.20;99.90
38359;DHT22;42072;48.044;14.416;2023-06-01T09:43:20;24.90;99.90
38359;DHT22;42072;48.044;14.416;2023-06-01T09:46:14;24.80;99.90
38359;DHT22;42072;48.044;14.416;2023-06-01T09:48:41;24.90;99.90
38359;DHT22;42072;48.044;14.416;2023-06-01T09:51:22;25.30;99.90
38359;DHT22;42072;48.044;14.416;2023-06-01T09:53:56;25.20;99.90
38359;DHT22;42072;48.044;14.416;2023-06-01T09:56:24;25.20;99.90
38359;DHT22;42072;48.044;14.416;2023-06-01T09:58:59;25.40;99.90
38359;DHT22;42072;48.044;14.416;2023-06-01T10:01:32;25.50;99.90
38359;DHT22;42072;48.044;14.416;2023-06-01T10:04:01;25.80;99.90
38359;DHT22;42072;48.044;14.416;2023-06-01T10:06:33;25.80;99.90
38359;DHT22;42072;48.044;14.416;2023-06-01T10:09:04;25.80;99.90
38359;DHT22;42072;48.044;14.416;2023-06-01T10:11:33;25.80;99.90
38359;DHT22;42072;48.044;14.416;2023-06-01T10:14:01;26.20;99.90
38359;DHT22;42072;48.044;14.416;2023-06-01T10:16:29;26.50;99.90
38359;DHT22;42072;48.044;14.416;2023-06-01T10:18:57;26.70;99.90
38359;DHT22;42072;48.044;14.416;2023-06-01T10:21:26;26.20;99.90
38359;DHT22;42072;48.044;14.416;2023-06-01T10:23:55;25.90;99.90
38359;DHT22;42072;48.044;14.416;2023-06-01T10:26:23;26.00;99.90
38359;DHT22;42072;48.044;14.416;2023-06-01T10:28:52;25.90;99.90
38359;DHT22;42072;48.044;14.416;2023-06-01T10:31:34;26.10;99.90
38359;DHT22;42072;48.044;14.416;2023-06-01T10:34:04;25.90;99.90
38359;DHT22;42072;48.044;14.416;2023-06-01T10:39:34;25.80;99.90
38359;DHT22;42072;48.044;14.416;2023-06-01T10:44:50;26.30;99.90
38359;DHT22;42072;48.044;14.416;2023-06-01T10:52:30;26.50;99.90
38359;DHT22;42072;48.044;14.416;2023-06-01T10:57:37;26.40;99.90
38359;DHT22;42072;48.044;14.416;2023-06-01T11:05:40;26.90;99.90
38359;DHT22;42072;48.044;14.416;2023-06-01T11:10:53;26.90;99.90
38359;DHT22;42072;48.044;14.416;2023-06-01T11:13:24;26.60;99.90
38359;DHT22;42072;48.044;14.416;2023-06-01T11:18:55;26.20;99.90
38359;DHT22;42072;48.044;14.416;2023-06-01T11:21:28;26.40;99.90
38359;DHT22;42072;48.044;14.416;2023-06-01T11:24:00;26.50;99.90
38359;DHT22;42072;48.044;14.416;2023-06-01T11:26:34;26.90;99.90
38359;DHT22;42072;48.044;14.416;2023-06-01T11:29:13;26.70;99.90
38359;DHT22;42072;48.044;14.416;2023-06-01T11:31:46;26.70;99.90
38359;DHT22;42072;48.044;14.416;2023-06-01T11:34:15;26.70;99.90
38359;DHT22;42072;48.044;14.416;2023-06-01T11:36:53;26.80;99.90
38359;DHT22;42072;48.044;14.416;2023-06-01T11:39:26;26.80;99.90
38359;DHT22;42072;48.044;14.416;2023-06-01T11:42:06;26.90;99.90
38359;DHT22;42072;48.044;14.416;2023-06-01T11:44:36;26.90;99.90
38359;DHT22;42072;48.044;14.416;2023-06-01T11:47:04;27.30;99.90
38359;DHT22;42072;48.044;14.416;2023-06-01T11:49:48;27.10;99.90
38359;DHT22;42072;48.044;14.416;2023-06-01T11:52:20;26.90;99.90
38359;DHT22;42072;48.044;14.416;2023-06-01T11:54:48;27.00;99.90
38359;DHT22;42072;48.044;14.416;2023-06-01T11:57:18;26.80;99.90
38359;DHT22;42072;48.044;14.416;2023-06-01T11:59:49;26.60;99.90
38359;DHT22;42072;48.044;14.416;2023-06-01T12:02:25;26.80;99.90
38359;DHT22;42072;48.044;14.416;2023-06-01T12:05:06;27.10;99.90
38359;DHT22;42072;48.044;14.416;2023-06-01T12:07:46;27.20;99.90
38359;DHT22;42072;48.044;14.416;2023-06-01T12:10:16;27.30;99.90
38359;DHT22;42072;48.044;14.416;2023-06-01T12:12:45;27.40;99.90
38359;DHT22;42072;48.044;14.416;2023-06-01T12:15:14;27.40;99.90
38359;DHT22;42072;48.044;14.416;2023-06-01T12:17:55;27.10;99.90
38359;DHT22;42072;48.044;14.416;2023-06-01T12:20:36;27.00;99.90
38359;DHT22;42072;48.044;14.416;2023-06-01T12:25:54;27.00;99.90
38359;DHT22;42072;48.044;14.416;2023-06-01T12:28:22;26.90;99.90
38359;DHT22;42072;48.044;14.416;2023-06-01T12:31:12;26.90;99.90
38359;DHT22;42072;48.044;14.416;2023-06-01T12:33:42;27.10;99.90
38359;DHT22;42072;48.044;14.416;2023-06-01T12:36:32;27.00;99.90
38359;DHT22;42072;48.044;14.416;2023-06-01T12:39:01;27.10;99.90
38359;DHT22;42072;48.044;14.416;2023-06-01T12:41:30;27.30;99.90
38359;DHT22;42072;48.044;14.416;2023-06-01T12:43:58;27.20;99.90
38359;DHT22;42072;48.044;14.416;2023-06-01T12:46:29;27.10;99.90
38359;DHT22;42072;48.044;14.416;2023-06-01T12:49:16;26.90;99.90
38359;DHT22;42072;48.044;14.416;2023-06-01T12:51:45;26.90;99.90
38359;DHT22;42072;48.044;14.416;2023-06-01T12:54:12;27.20;99.90
38359;DHT22;42072;48.044;14.416;2023-06-01T12:56:39;27.40;99.90
38359;DHT22;42072;48.044;14.416;2023-06-01T12:59:07;27.30;99.90
38359;DHT22;42072;48.044;14.416;2023-06-01T13:01:35;27.40;99.90
38359;DHT22;42072;48.044;14.416;2023-06-01T13:04:02;27.70;99.90
38359;DHT22;42072;48.044;14.416;2023-06-01T13:06:33;27.70;99.90
38359;DHT22;42072;48.044;14.416;2023-06-01T13:09:05;27.70;99.90
38359;DHT22;42072;48.044;14.416;2023-06-01T13:11:33;27.80;99.90
38359;DHT22;42072;48.044;14.416;2023-06-01T13:14:01;27.60;99.90
38359;DHT22;42072;48.044;14.416;2023-06-01T13:16:29;27.60;99.90
38359;DHT22;42072;48.044;14.416;2023-06-01T13:18:56;27.50;99.90
38359;DHT22;42072;48.044;14.416;2023-06-01T13:21:24;27.40;99.90
38359;DHT22;42072;48.044;14.416;2023-06-01T13:23:51;27.60;99.90
38359;DHT22;42072;48.044;14.416;2023-06-01T13:26:18;27.60;99.90
38359;DHT22;42072;48.044;14.416;2023-06-01T13:28:46;27.70;99.90
38359;DHT22;42072;48.044;14.416;2023-06-01T13:31:13;27.90;99.90
38359;DHT22;42072;48.044;14.416;2023-06-01T13:33:41;28.00;98.00
38359;DHT22;42072;48.044;14.416;2023-06-01T13:36:08;27.90;96.10
38359;DHT22;42072;48.044;14.416;2023-06-01T13:38:36;27.60;96.50
38359;DHT22;42072;48.044;14.416;2023-06-01T13:41:03;27.70;95.40
38359;DHT22;42072;48.044;14.416;2023-06-01T13:43:32;27.70;92.70
38359;DHT22;42072;48.044;14.416;2023-06-01T13:45:59;27.60;96.00
38359;DHT22;42072;48.044;14.416;2023-06-01T13:48:27;27.70;92.80
38359;DHT22;42072;48.044;14.416;2023-06-01T13:50:55;27.90;95.00
38359;DHT22;42072;48.044;14.416;2023-06-01T13:53:22;27.70;94.30
38359;DHT22;42072;48.044;14.416;2023-06-01T13:55:49;27.40;94.70
38359;DHT22;42072;48.044;14.416;2023-06-01T13:58:17;27.70;95.10
38359;DHT22;42072;48.044;14.416;2023-06-01T14:00:44;27.80;95.50
38359;DHT22;42072;48.044;14.416;2023-06-01T14:03:11;28.00;95.60
38359;DHT22;42072;48.044;14.416;2023-06-01T14:05:39;27.90;94.40
38359;DHT22;42072;48.044;14.416;2023-06-01T14:08:26;27.80;94.90
38359;DHT22;42072;48.044;14.416;2023-06-01T14:10:53;28.10;95.30
38359;DHT22;42072;48.044;14.416;2023-06-01T14:13:20;28.20;94.60
38359;DHT22;42072;48.044;14.416;2023-06-01T14:15:48;28.20;93.50
38359;DHT22;42072;48.044;14.416;2023-06-01T14:18:15;28.10;91.70
38359;DHT22;42072;48.044;14.416;2023-06-01T14:20:42;28.10;91.60
38359;DHT22;42072;48.044;14.416;2023-06-01T14:23:10;28.20;91.20
38359;DHT22;42072;48.044;14.416;2023-06-01T14:25:38;28.10;90.10
38359;DHT22;42072;48.044;14.416;2023-06-01T14:28:05;28.00;88.30
38359;DHT22;42072;48.044;14.416;2023-06-01T14:30:33;28.20;89.20
38359;DHT22;42072;48.044;14.416;2023-06-01T14:33:00;28.40;86.70
38359;DHT22;42072;48.044;14.416;2023-06-01T14:35:27;28.20;86.30
38359;DHT22;42072;48.044;14.416;2023-06-01T14:37:54;28.40;90.50
38359;DHT22;42072;48.044;14.416;2023-06-01T14:40:22;28.50;84.80
38359;DHT22;42072;48.044;14.416;2023-06-01T14:42:50;28.20;84.30
38359;DHT22;42072;48.044;14.416;2023-06-01T14:45:17;28.20;83.20
38359;DHT22;42072;48.044;14.416;2023-06-01T14:47:46;28.20;86.00
38359;DHT22;42072;48.044;14.416;2023-06-01T14:50:14;28.00;83.40
38359;DHT22;42072;48.044;14.416;2023-06-01T14:52:41;28.10;86.00
38359;DHT22;42072;48.044;14.416;2023-06-01T14:55:09;28.50;82.50
38359;DHT22;42072;48.044;14.416;2023-06-01T14:57:40;28.50;77.10
38359;DHT22;42072;48.044;14.416;2023-06-01T15:00:09;28.50;75.40
38359;DHT22;42072;48.044;14.416;2023-06-01T15:02:37;28.70;75.60
38359;DHT22;42072;48.044;14.416;2023-06-01T15:05:05;28.80;76.90
38359;DHT22;42072;48.044;14.416;2023-06-01T15:07:32;28.70;79.30
38359;DHT22;42072;48.044;14.416;2023-06-01T15:09:59;28.50;78.80
38359;DHT22;42072;48.044;14.416;2023-06-01T15:12:27;28.70;74.90
38359;DHT22;42072;48.044;14.416;2023-06-01T15:14:54;28.70;73.80
38359;DHT22;42072;48.044;14.416;2023-06-01T15:17:22;28.50;74.30
38359;DHT22;42072;48.044;14.416;2023-06-01T15:19:49;28.70;71.30
38359;DHT22;42072;48.044;14.416;2023-06-01T15:22:17;28.90;70.60
38359;DHT22;42072;48.044;14.416;2023-06-01T15:24:44;29.20;69.20
38359;DHT22;42072;48.044;14.416;2023-06-01T15:27:12;29.50;66.10
38359;DHT22;42072;48.044;14.416;2023-06-01T15:29:39;29.40;72.40
38359;DHT22;42072;48.044;14.416;2023-06-01T15:32:07;29.20;74.80
38359;DHT22;42072;48.044;14.416;2023-06-01T15:34:34;28.90;75.80
38359;DHT22;42072;48.044;14.416;2023-06-01T15:37:02;28.60;77.80
38359;DHT22;42072;48.044;14.416;2023-06-01T15:39:29;28.40;80.80
38359;DHT22;42072;48.044;14.416;2023-06-01T15:41:56;28.30;81.20
38359;DHT22;42072;48.044;14.416;2023-06-01T15:44:24;28.60;82.40
38359;DHT22;42072;48.044;14.416;2023-06-01T15:46:51;28.60;78.80
38359;DHT22;42072;48.044;14.416;2023-06-01T15:49:19;28.50;82.20
38359;DHT22;42072;48.044;14.416;2023-06-01T15:51:46;28.40;84.30
38359;DHT22;42072;48.044;14.416;2023-06-01T15:54:14;28.20;81.30
38359;DHT22;42072;48.044;14.416;2023-06-01T15:56:42;28.20;77.90
38359;DHT22;42072;48.044;14.416;2023-06-01T15:59:10;27.70;78.50
38359;DHT22;42072;48.044;14.416;2023-06-01T16:01:37;27.40;78.30
38359;DHT22;42072;48.044;14.416;2023-06-01T16:04:04;27.70;81.20
38359;DHT22;42072;48.044;14.416;2023-06-01T16:06:32;27.80;83.60
38359;DHT22;42072;48.044;14.416;2023-06-01T16:08:59;28.00;89.40